PWSweather.com
Personal Weather Stations
Station Observations
KRAAKEBERG
Karmoy, SkudeneshavnNO

KarmoySkudeneshavnNO

Lat: 59.14963, Lon: 5.21978

Elevation: 32

Station Type: Davis Vantage Pro2 Plus

http://www.harduz.net

Latest ConditionsUpdated 11:30:00 PM GMT+01:01 Wednesday, Feb 20, 2019
Currently Today's Max Today's Min Today's Average
Temperature 43.9°F6.6°C 44.1°F6.7°C 36.3°F2.4°C 41.0°F5.0°C
Dew Point 42.8°F6.0°C 43.0°F6.1°C 34.8°F1.6°C 39.5°F4.2°C
Winds 17.0 mph S27.4 kmh S 30.0 mph -48.3 kmh - - 13.3 mph 21.4 kmh
Wind Gusts 23.0 mph37.0 kmh 40.0 mph64.4 kmh - -
Humidity 96% 96% 92% 94%
Pressure 29.78 in1008.5 mb 29.86 in1011.2 mb 29.75 in1007.5 mb -
Precipitation - 0.13 in3.3 mm - -
Hour Temp Dew Point Humidity Winds Wind Gusts Pressure Precip Precip Rate Daily Precip Total
11:30 PM 43.9°F6.6°C 42.8°F6.0°C 96% 17.0 mph S27.4 kmh S 23.0 mph37.0 kmh 29.78 in1008.5 mb 0.00 in0.0 mm 0.00 in0.0 mm 0.13 in3.3 mm
11:15 PM 44.1°F6.7°C 43.0°F6.1°C 96% 18.0 mph S29.0 kmh S 26.0 mph41.8 kmh 29.78 in1008.5 mb 0.00 in0.0 mm 0.00 in0.0 mm 0.13 in3.3 mm
11:00 PM 43.9°F6.6°C 42.8°F6.0°C 96% 16.0 mph S25.7 kmh S 24.0 mph38.6 kmh 29.78 in1008.5 mb 0.00 in0.0 mm 0.00 in0.0 mm 0.13 in3.3 mm
10:45 PM 44.1°F6.7°C 43.0°F6.1°C 96% 17.0 mph S27.4 kmh S 25.0 mph40.2 kmh 29.78 in1008.5 mb 0.00 in0.0 mm 0.00 in0.0 mm 0.13 in3.3 mm
10:30 PM 43.7°F6.5°C 42.6°F5.9°C 96% 19.0 mph S30.6 kmh S 28.0 mph45.1 kmh 29.79 in1008.8 mb 0.00 in0.0 mm 0.00 in0.0 mm 0.13 in3.3 mm
10:15 PM 43.5°F6.4°C 42.5°F5.8°C 96% 20.0 mph S32.2 kmh S 28.0 mph45.1 kmh 29.78 in1008.5 mb 0.00 in0.0 mm 0.00 in0.0 mm 0.13 in3.3 mm
10:00 PM 43.9°F6.6°C 42.8°F6.0°C 96% 18.0 mph S29.0 kmh S 29.0 mph46.7 kmh 29.78 in1008.5 mb 0.00 in0.0 mm 0.00 in0.0 mm 0.13 in3.3 mm
09:45 PM 44.1°F6.7°C 43.0°F6.1°C 96% 19.0 mph S30.6 kmh S 30.0 mph48.3 kmh 29.79 in1008.8 mb 0.00 in0.0 mm 0.00 in0.0 mm 0.13 in3.3 mm
09:30 PM 44.1°F6.7°C 43.0°F6.1°C 96% 17.0 mph S27.4 kmh S 24.0 mph38.6 kmh 29.78 in1008.5 mb 0.00 in0.0 mm 0.00 in0.0 mm 0.13 in3.3 mm
09:15 PM 43.7°F6.5°C 42.6°F5.9°C 96% 20.0 mph S32.2 kmh S 29.0 mph46.7 kmh 29.78 in1008.5 mb 0.00 in0.0 mm 0.00 in0.0 mm 0.13 in3.3 mm
09:00 PM 43.5°F6.4°C 42.5°F5.8°C 96% 21.0 mph S33.8 kmh S 30.0 mph48.3 kmh 29.78 in1008.5 mb 0.00 in0.0 mm 0.00 in0.0 mm 0.13 in3.3 mm
08:45 PM 43.3°F6.3°C 42.3°F5.7°C 96% 21.0 mph S33.8 kmh S 31.0 mph49.9 kmh 29.78 in1008.5 mb 0.00 in0.0 mm 0.00 in0.0 mm 0.13 in3.3 mm
08:30 PM 43.3°F6.3°C 42.3°F5.7°C 96% 25.0 mph S40.2 kmh S 32.0 mph51.5 kmh 29.78 in1008.5 mb 0.00 in0.0 mm 0.00 in0.0 mm 0.13 in3.3 mm
08:15 PM 43.2°F6.2°C 42.1°F5.6°C 96% 24.0 mph S38.6 kmh S 36.0 mph57.9 kmh 29.78 in1008.5 mb 0.00 in0.0 mm 0.00 in0.0 mm 0.13 in3.3 mm
08:00 PM 43.2°F6.2°C 42.1°F5.6°C 96% 26.0 mph S41.8 kmh S 40.0 mph64.4 kmh 29.78 in1008.5 mb 0.00 in0.0 mm 0.00 in0.0 mm 0.13 in3.3 mm
07:45 PM 43.2°F6.2°C 42.1°F5.6°C 96% 26.0 mph S41.8 kmh S 40.0 mph64.4 kmh 29.78 in1008.5 mb 0.00 in0.0 mm 0.00 in0.0 mm 0.13 in3.3 mm
07:30 PM 43.0°F6.1°C 41.9°F5.5°C 96% 29.0 mph S46.7 kmh S 36.0 mph57.9 kmh 29.77 in1008.1 mb 0.00 in0.0 mm 0.00 in0.0 mm 0.13 in3.3 mm
07:15 PM 42.8°F6.0°C 41.7°F5.4°C 96% 30.0 mph SSE48.3 kmh SSE 38.0 mph61.2 kmh 29.78 in1008.5 mb 0.00 in0.0 mm 0.00 in0.0 mm 0.13 in3.3 mm
07:00 PM 42.8°F6.0°C 41.7°F5.4°C 96% 29.0 mph SSE46.7 kmh SSE 40.0 mph64.4 kmh 29.78 in1008.5 mb 0.00 in0.0 mm 0.00 in0.0 mm 0.13 in3.3 mm
06:45 PM 42.6°F5.9°C 41.6°F5.3°C 96% 29.0 mph SSE46.7 kmh SSE 38.0 mph61.2 kmh 29.78 in1008.5 mb 0.01 in0.3 mm 0.00 in0.0 mm 0.13 in3.3 mm
06:30 PM 42.4°F5.8°C 41.1°F5.1°C 95% 24.0 mph SSE38.6 kmh SSE 34.0 mph54.7 kmh 29.78 in1008.5 mb 0.02 in0.5 mm 0.00 in0.0 mm 0.13 in3.3 mm
06:15 PM 42.3°F5.7°C 40.9°F4.9°C 95% 23.0 mph SSE37.0 kmh SSE 30.0 mph48.3 kmh 29.79 in1008.8 mb 0.02 in0.5 mm 0.00 in0.0 mm 0.13 in3.3 mm
06:00 PM 42.1°F5.6°C 40.5°F4.7°C 94% 24.0 mph SSE38.6 kmh SSE 31.0 mph49.9 kmh 29.79 in1008.8 mb 0.02 in0.5 mm 0.00 in0.0 mm 0.12 in3.0 mm
05:45 PM 41.9°F5.5°C 40.3°F4.6°C 94% 24.0 mph SE38.6 kmh SE 31.0 mph49.9 kmh 29.79 in1008.8 mb 0.02 in0.5 mm 0.04 in1.0 mm 0.12 in3.0 mm
05:30 PM 41.7°F5.4°C 40.1°F4.5°C 94% 23.0 mph SE37.0 kmh SE 30.0 mph48.3 kmh 29.79 in1008.8 mb 0.01 in0.3 mm 0.00 in0.0 mm 0.11 in2.8 mm
05:15 PM 41.4°F5.2°C 39.8°F4.3°C 94% 25.0 mph SE40.2 kmh SE 31.0 mph49.9 kmh 29.79 in1008.8 mb 0.01 in0.3 mm 0.00 in0.0 mm 0.10 in2.5 mm
05:00 PM 41.2°F5.1°C 39.6°F4.2°C 94% 26.0 mph SE41.8 kmh SE 32.0 mph51.5 kmh 29.79 in1008.8 mb 0.01 in0.3 mm 0.00 in0.0 mm 0.10 in2.5 mm
04:45 PM 41.2°F5.1°C 39.6°F4.2°C 94% 26.0 mph SE41.8 kmh SE 32.0 mph51.5 kmh 29.79 in1008.8 mb 0.02 in0.5 mm 0.00 in0.0 mm 0.10 in2.5 mm
04:30 PM 41.2°F5.1°C 39.3°F4.1°C 93% 26.0 mph SE41.8 kmh SE 31.0 mph49.9 kmh 29.80 in1009.1 mb 0.02 in0.5 mm 0.00 in0.0 mm 0.10 in2.5 mm
04:15 PM 41.4°F5.2°C 39.5°F4.2°C 93% 28.0 mph SE45.1 kmh SE 34.0 mph54.7 kmh 29.80 in1009.1 mb 0.02 in0.5 mm 0.00 in0.0 mm 0.09 in2.3 mm
04:00 PM 41.4°F5.2°C 39.5°F4.2°C 93% 26.0 mph SE41.8 kmh SE 31.0 mph49.9 kmh 29.81 in1009.5 mb 0.02 in0.5 mm 0.00 in0.0 mm 0.09 in2.3 mm
03:45 PM 41.4°F5.2°C 39.5°F4.2°C 93% 26.0 mph SE41.8 kmh SE 31.0 mph49.9 kmh 29.81 in1009.5 mb 0.02 in0.5 mm 0.00 in0.0 mm 0.09 in2.3 mm
03:30 PM 41.4°F5.2°C 39.2°F4.0°C 92% 26.0 mph SE41.8 kmh SE 32.0 mph51.5 kmh 29.81 in1009.5 mb 0.02 in0.5 mm 0.00 in0.0 mm 0.09 in2.3 mm
03:15 PM 41.4°F5.2°C 39.5°F4.2°C 93% 25.0 mph SE40.2 kmh SE 30.0 mph48.3 kmh 29.82 in1009.8 mb 0.02 in0.5 mm 0.00 in0.0 mm 0.08 in2.0 mm
03:00 PM 41.5°F5.3°C 39.7°F4.3°C 93% 25.0 mph SE40.2 kmh SE 30.0 mph48.3 kmh 29.82 in1009.8 mb 0.02 in0.5 mm 0.00 in0.0 mm 0.07 in1.8 mm
02:45 PM 41.5°F5.3°C 39.7°F4.3°C 93% 25.0 mph SE40.2 kmh SE 31.0 mph49.9 kmh 29.83 in1010.2 mb 0.02 in0.5 mm 0.00 in0.0 mm 0.07 in1.8 mm
02:30 PM 41.7°F5.4°C 40.1°F4.5°C 94% 24.0 mph SE38.6 kmh SE 30.0 mph48.3 kmh 29.83 in1010.2 mb 0.02 in0.5 mm 0.00 in0.0 mm 0.06 in1.5 mm
02:15 PM 41.7°F5.4°C 40.1°F4.5°C 94% 21.0 mph SE33.8 kmh SE 28.0 mph45.1 kmh 29.83 in1010.2 mb 0.02 in0.5 mm 0.00 in0.0 mm 0.06 in1.5 mm
02:00 PM 41.5°F5.3°C 39.9°F4.4°C 94% 20.0 mph SE32.2 kmh SE 26.0 mph41.8 kmh 29.84 in1010.5 mb 0.02 in0.5 mm 0.00 in0.0 mm 0.06 in1.5 mm
01:45 PM 41.7°F5.4°C 40.1°F4.5°C 94% 19.0 mph SE30.6 kmh SE 25.0 mph40.2 kmh 29.84 in1010.5 mb 0.02 in0.5 mm 0.00 in0.0 mm 0.05 in1.3 mm
01:30 PM 41.7°F5.4°C 40.1°F4.5°C 94% 20.0 mph SE32.2 kmh SE 25.0 mph40.2 kmh 29.84 in1010.5 mb 0.02 in0.5 mm 0.00 in0.0 mm 0.04 in1.0 mm
01:15 PM 41.7°F5.4°C 40.1°F4.5°C 94% 19.0 mph SE30.6 kmh SE 25.0 mph40.2 kmh 29.84 in1010.5 mb 0.02 in0.5 mm 0.00 in0.0 mm 0.04 in1.0 mm
01:00 PM 41.5°F5.3°C 39.9°F4.4°C 94% 19.0 mph SSE30.6 kmh SSE 25.0 mph40.2 kmh 29.85 in1010.8 mb 0.02 in0.5 mm 0.00 in0.0 mm 0.03 in0.8 mm
12:45 PM 41.5°F5.3°C 39.9°F4.4°C 94% 19.0 mph SSE30.6 kmh SSE 25.0 mph40.2 kmh 29.85 in1010.8 mb 0.02 in0.5 mm 0.00 in0.0 mm 0.02 in0.5 mm
12:30 PM 41.5°F5.3°C 39.9°F4.4°C 94% 19.0 mph SSE30.6 kmh SSE 24.0 mph38.6 kmh 29.85 in1010.8 mb 0.02 in0.5 mm 0.04 in1.0 mm 0.02 in0.5 mm
12:15 PM 41.5°F5.3°C 39.9°F4.4°C 94% 18.0 mph SSE29.0 kmh SSE 24.0 mph38.6 kmh 29.85 in1010.8 mb 0.01 in0.3 mm 0.00 in0.0 mm 0.02 in0.5 mm
12:00 PM 41.5°F5.3°C 40.2°F4.6°C 95% 17.0 mph SSE27.4 kmh SSE 21.0 mph33.8 kmh 29.86 in1011.2 mb 0.01 in0.3 mm 0.00 in0.0 mm 0.02 in0.5 mm
11:45 AM 41.7°F5.4°C 40.4°F4.7°C 95% 17.0 mph SSE27.4 kmh SSE 21.0 mph33.8 kmh 29.85 in1010.8 mb 0.01 in0.3 mm 0.00 in0.0 mm 0.01 in0.3 mm
11:30 AM 41.7°F5.4°C 40.1°F4.5°C 94% 18.0 mph SSE29.0 kmh SSE 23.0 mph37.0 kmh 29.85 in1010.8 mb 0.01 in0.3 mm 0.00 in0.0 mm 0.01 in0.3 mm
11:15 AM 41.7°F5.4°C 40.1°F4.5°C 94% 16.0 mph SSE25.7 kmh SSE 20.0 mph32.2 kmh 29.86 in1011.2 mb 0.01 in0.3 mm 0.00 in0.0 mm 0.01 in0.3 mm
11:00 AM 41.9°F5.5°C 40.3°F4.6°C 94% 14.0 mph SSE22.5 kmh SSE 19.0 mph30.6 kmh 29.85 in1010.8 mb 0.01 in0.3 mm 0.01 in0.3 mm 0.01 in0.3 mm
10:45 AM 41.7°F5.4°C 39.8°F4.3°C 93% 14.0 mph SSE22.5 kmh SSE 18.0 mph29.0 kmh 29.85 in1010.8 mb 0.00 in0.0 mm 0.00 in0.0 mm 0.00 in0.0 mm
10:30 AM 41.9°F5.5°C 40.3°F4.6°C 94% 14.0 mph SSE22.5 kmh SSE 18.0 mph29.0 kmh 29.85 in1010.8 mb 0.00 in0.0 mm 0.00 in0.0 mm 0.00 in0.0 mm
10:15 AM 41.7°F5.4°C 40.1°F4.5°C 94% 13.0 mph SSE20.9 kmh SSE 18.0 mph29.0 kmh 29.85 in1010.8 mb 0.00 in0.0 mm 0.00 in0.0 mm 0.00 in0.0 mm
10:00 AM 41.7°F5.4°C 40.1°F4.5°C 94% 12.0 mph S19.3 kmh S 17.0 mph27.4 kmh 29.84 in1010.5 mb 0.00 in0.0 mm 0.00 in0.0 mm 0.00 in0.0 mm
09:45 AM 41.9°F5.5°C 40.3°F4.6°C 94% 12.0 mph SSE19.3 kmh SSE 16.0 mph25.7 kmh 29.84 in1010.5 mb 0.00 in0.0 mm 0.00 in0.0 mm 0.00 in0.0 mm
09:30 AM 41.7°F5.4°C 40.1°F4.5°C 94% 11.0 mph SSE17.7 kmh SSE 16.0 mph25.7 kmh 29.84 in1010.5 mb 0.00 in0.0 mm 0.00 in0.0 mm 0.00 in0.0 mm
09:15 AM 41.5°F5.3°C 39.9°F4.4°C 94% 10.0 mph S16.1 kmh S 14.0 mph22.5 kmh 29.84 in1010.5 mb 0.00 in0.0 mm 0.00 in0.0 mm 0.00 in0.0 mm
09:00 AM 41.5°F5.3°C 39.9°F4.4°C 94% 7.0 mph S11.3 kmh S 12.0 mph19.3 kmh 29.83 in1010.2 mb 0.00 in0.0 mm 0.00 in0.0 mm 0.00 in0.0 mm
08:45 AM 41.4°F5.2°C 40.0°F4.4°C 95% 7.0 mph SSE11.3 kmh SSE 10.0 mph16.1 kmh 29.82 in1009.8 mb 0.00 in0.0 mm 0.00 in0.0 mm 0.00 in0.0 mm
08:30 AM 41.4°F5.2°C 40.0°F4.4°C 95% 7.0 mph S11.3 kmh S 11.0 mph17.7 kmh 29.82 in1009.8 mb 0.00 in0.0 mm 0.00 in0.0 mm 0.00 in0.0 mm
08:15 AM 41.5°F5.3°C 40.2°F4.6°C 95% 6.0 mph S9.7 kmh S 10.0 mph16.1 kmh 29.82 in1009.8 mb 0.00 in0.0 mm 0.00 in0.0 mm 0.00 in0.0 mm
08:00 AM 41.2°F5.1°C 39.9°F4.4°C 95% 6.0 mph SSE9.7 kmh SSE 8.0 mph12.9 kmh 29.81 in1009.5 mb 0.00 in0.0 mm 0.00 in0.0 mm 0.00 in0.0 mm
07:45 AM 40.1°F4.5°C 39.1°F3.9°C 96% 2.0 mph SE3.2 kmh SE 7.0 mph11.3 kmh 29.81 in1009.5 mb 0.00 in0.0 mm 0.00 in0.0 mm 0.00 in0.0 mm
07:30 AM 39.4°F4.1°C 38.1°F3.4°C 95% 1.0 mph E1.6 kmh E 3.0 mph4.8 kmh 29.81 in1009.5 mb 0.00 in0.0 mm 0.00 in0.0 mm 0.00 in0.0 mm
07:15 AM 39.4°F4.1°C 38.1°F3.4°C 95% 2.0 mph E3.2 kmh E 3.0 mph4.8 kmh 29.80 in1009.1 mb 0.00 in0.0 mm 0.00 in0.0 mm 0.00 in0.0 mm
07:00 AM 38.8°F3.8°C 37.5°F3.1°C 95% 2.0 mph E3.2 kmh E 3.0 mph4.8 kmh 29.80 in1009.1 mb 0.00 in0.0 mm 0.00 in0.0 mm 0.00 in0.0 mm
06:45 AM 38.3°F3.5°C 37.0°F2.8°C 95% 1.0 mph E1.6 kmh E 3.0 mph4.8 kmh 29.80 in1009.1 mb 0.00 in0.0 mm 0.00 in0.0 mm 0.00 in0.0 mm
06:30 AM 38.1°F3.4°C 36.8°F2.7°C 95% Calm Calm -- 29.80 in1009.1 mb 0.00 in0.0 mm 0.00 in0.0 mm 0.00 in0.0 mm
06:15 AM 37.8°F3.2°C 36.5°F2.5°C 95% Calm Calm -- 29.80 in1009.1 mb 0.00 in0.0 mm 0.00 in0.0 mm 0.00 in0.0 mm
06:00 AM 37.6°F3.1°C 36.3°F2.4°C 95% Calm Calm -- 29.80 in1009.1 mb 0.00 in0.0 mm 0.00 in0.0 mm 0.00 in0.0 mm
05:45 AM 37.6°F3.1°C 36.0°F2.2°C 94% Calm Calm -- 29.80 in1009.1 mb 0.00 in0.0 mm 0.00 in0.0 mm 0.00 in0.0 mm
05:30 AM 37.2°F2.9°C 35.9°F2.2°C 95% Calm Calm -- 29.80 in1009.1 mb 0.00 in0.0 mm 0.00 in0.0 mm 0.00 in0.0 mm
05:15 AM 36.9°F2.7°C 35.3°F1.8°C 94% Calm Calm -- 29.80 in1009.1 mb 0.00 in0.0 mm 0.00 in0.0 mm 0.00 in0.0 mm
05:00 AM 37.0°F2.8°C 35.7°F2.1°C 95% Calm Calm -- 29.80 in1009.1 mb 0.00 in0.0 mm 0.00 in0.0 mm 0.00 in0.0 mm
04:45 AM 36.5°F2.5°C 34.9°F1.6°C 94% Calm Calm -- 29.80 in1009.1 mb 0.00 in0.0 mm 0.00 in0.0 mm 0.00 in0.0 mm
04:30 AM 36.3°F2.4°C 34.8°F1.6°C 94% Calm Calm -- 29.80 in1009.1 mb 0.00 in0.0 mm 0.00 in0.0 mm 0.00 in0.0 mm
04:15 AM 36.3°F2.4°C 34.8°F1.6°C 94% Calm Calm -- 29.80 in1009.1 mb 0.00 in0.0 mm 0.00 in0.0 mm 0.00 in0.0 mm
04:00 AM 36.5°F2.5°C 34.9°F1.6°C 94% Calm Calm -- 29.80 in1009.1 mb 0.00 in0.0 mm 0.00 in0.0 mm 0.00 in0.0 mm
03:45 AM 37.0°F2.8°C 35.2°F1.8°C 93% Calm Calm -- 29.80 in1009.1 mb 0.00 in0.0 mm 0.00 in0.0 mm 0.00 in0.0 mm
03:30 AM 38.1°F3.4°C 36.5°F2.5°C 94% Calm Calm -- 29.80 in1009.1 mb 0.00 in0.0 mm 0.00 in0.0 mm 0.00 in0.0 mm
03:15 AM 38.1°F3.4°C 36.5°F2.5°C 94% Calm Calm -- 29.80 in1009.1 mb 0.00 in0.0 mm 0.00 in0.0 mm 0.00 in0.0 mm
03:00 AM 38.7°F3.7°C 36.8°F2.7°C 93% Calm Calm 1.0 mph1.6 kmh 29.80 in1009.1 mb 0.00 in0.0 mm 0.00 in0.0 mm 0.00 in0.0 mm
02:45 AM 39.0°F3.9°C 37.2°F2.9°C 93% Calm Calm -- 29.80 in1009.1 mb 0.00 in0.0 mm 0.00 in0.0 mm 0.00 in0.0 mm
02:30 AM 38.8°F3.8°C 37.0°F2.8°C 93% Calm Calm -- 29.79 in1008.8 mb 0.00 in0.0 mm 0.00 in0.0 mm 0.00 in0.0 mm
02:15 AM 38.8°F3.8°C 37.0°F2.8°C 93% Calm Calm 1.0 mph1.6 kmh 29.79 in1008.8 mb 0.00 in0.0 mm 0.00 in0.0 mm 0.00 in0.0 mm
02:00 AM 39.2°F4.0°C 37.1°F2.8°C 92% Calm Calm 2.0 mph3.2 kmh 29.79 in1008.8 mb 0.00 in0.0 mm 0.00 in0.0 mm 0.00 in0.0 mm
01:45 AM 40.1°F4.5°C 38.2°F3.4°C 93% Calm Calm -- 29.79 in1008.8 mb 0.00 in0.0 mm 0.00 in0.0 mm 0.00 in0.0 mm
01:30 AM 40.6°F4.8°C 38.8°F3.8°C 93% 1.0 mph NW1.6 kmh NW 2.0 mph3.2 kmh 29.78 in1008.5 mb 0.00 in0.0 mm 0.00 in0.0 mm 0.00 in0.0 mm
01:15 AM 40.6°F4.8°C 38.8°F3.8°C 93% Calm Calm 3.0 mph4.8 kmh 29.78 in1008.5 mb 0.00 in0.0 mm 0.00 in0.0 mm 0.00 in0.0 mm
01:00 AM 40.6°F4.8°C 38.5°F3.6°C 92% Calm Calm 3.0 mph4.8 kmh 29.77 in1008.1 mb 0.00 in0.0 mm 0.00 in0.0 mm 0.00 in0.0 mm
12:45 AM 41.4°F5.2°C 39.2°F4.0°C 92% 2.0 mph NW3.2 kmh NW 5.0 mph8.0 kmh 29.77 in1008.1 mb 0.00 in0.0 mm 0.00 in0.0 mm 0.00 in0.0 mm
12:30 AM 41.7°F5.4°C 39.6°F4.2°C 92% 2.0 mph NW3.2 kmh NW 6.0 mph9.7 kmh 29.76 in1007.8 mb 0.00 in0.0 mm 0.00 in0.0 mm 0.00 in0.0 mm
12:15 AM 41.5°F5.3°C 39.4°F4.1°C 92% 3.0 mph NW4.8 kmh NW 7.0 mph11.3 kmh 29.76 in1007.8 mb 0.00 in0.0 mm 0.00 in0.0 mm 0.00 in0.0 mm
12:00 AM 42.1°F5.6°C 39.9°F4.4°C 92% 5.0 mph NW8.0 kmh NW 10.0 mph16.1 kmh 29.75 in1007.5 mb 0.00 in0.0 mm 0.00 in0.0 mm 0.00 in0.0 mm